createdAt,value
2023-04-27T00:00:04.882Z,79.35
2023-04-27T00:01:05.436Z,79.66
2023-04-27T00:02:05.884Z,79.66
2023-04-27T00:03:06.706Z,80.18
2023-04-27T00:04:06.953Z,79.97
2023-04-27T00:05:06.987Z,79.66
2023-04-27T00:06:06.970Z,78.49
2023-04-27T00:07:07.422Z,79.04
2023-04-27T00:08:07.834Z,80.42
2023-04-27T00:09:08.280Z,79.90
2023-04-27T00:10:08.716Z,80.32
2023-04-27T00:11:09.127Z,80.42
2023-04-27T00:12:09.543Z,80.90
2023-04-27T00:13:09.959Z,79.97
2023-04-27T00:14:10.401Z,80.07
2023-04-27T00:15:10.844Z,80.38
2023-04-27T00:16:11.308Z,80.07
2023-04-27T00:17:11.756Z,79.00
2023-04-27T00:18:12.186Z,78.66
2023-04-27T00:19:12.830Z,78.04
2023-04-27T00:20:12.808Z,77.62
2023-04-27T00:21:13.242Z,77.22
2023-04-27T00:22:13.662Z,77.01
2023-04-27T00:23:14.081Z,76.70
2023-04-27T00:24:14.509Z,76.90
2023-04-27T00:25:14.952Z,77.52
2023-04-27T00:26:15.410Z,77.22
2023-04-27T00:27:15.842Z,76.90
2023-04-27T00:28:16.274Z,76.70
2023-04-27T00:29:16.718Z,77.01
2023-04-27T00:30:17.154Z,78.18
2023-04-27T00:31:17.665Z,78.90
2023-04-27T00:32:18.110Z,80.07
2023-04-27T00:33:18.538Z,81.24
2023-04-27T00:34:18.977Z,82.62
2023-04-27T00:35:19.774Z,83.59
2023-04-27T00:36:19.918Z,84.05
2023-04-27T00:37:19.831Z,83.65
2023-04-27T00:38:20.341Z,82.93
2023-04-27T00:39:20.842Z,82.17
2023-04-27T00:40:21.324Z,81.00
2023-04-27T00:41:21.767Z,81.66
2023-04-27T00:42:22.187Z,82.38
2023-04-27T00:43:22.600Z,82.73
2023-04-27T00:44:23.057Z,82.83
2023-04-27T00:45:23.506Z,83.00
2023-04-27T00:46:23.984Z,81.96
2023-04-27T00:47:24.494Z,80.69
2023-04-27T00:48:24.942Z,80.07
2023-04-27T00:49:25.374Z,79.97
2023-04-27T00:50:25.814Z,80.28
2023-04-27T00:51:26.252Z,81.14
2023-04-27T00:52:26.723Z,81.96
2023-04-27T00:53:27.164Z,81.24
2023-04-27T00:54:27.630Z,81.56
2023-04-27T00:55:28.084Z,81.24
2023-04-27T00:56:28.509Z,81.86
2023-04-27T00:57:28.950Z,82.28
2023-04-27T00:58:29.415Z,82.83
2023-04-27T00:59:29.852Z,83.39
2023-04-27T01:00:30.268Z,83.76
2023-04-27T01:01:30.712Z,84.21
2023-04-27T01:02:31.348Z,84.94
2023-04-27T01:03:31.493Z,84.45
2023-04-27T01:04:31.627Z,84.56
2023-04-27T01:05:32.599Z,85.14
2023-04-27T01:06:32.085Z,84.73
2023-04-27T01:07:32.513Z,84.77
2023-04-27T01:08:32.955Z,84.73
2023-04-27T01:09:33.442Z,84.52
2023-04-27T01:10:33.909Z,84.73
2023-04-27T01:11:34.440Z,84.63
2023-04-27T01:12:34.879Z,85.08
2023-04-27T01:13:35.308Z,85.08
2023-04-27T01:14:35.732Z,84.77
2023-04-27T01:15:36.159Z,84.25
2023-04-27T01:16:36.590Z,83.59
2023-04-27T01:17:37.047Z,83.70
2023-04-27T01:18:37.489Z,83.18
2023-04-27T01:19:37.909Z,82.87
2023-04-27T01:20:38.336Z,82.35
2023-04-27T01:21:38.777Z,82.29
2023-04-27T01:22:39.233Z,82.56
2023-04-27T01:23:39.660Z,82.35
2023-04-27T01:24:40.133Z,82.10
2023-04-27T01:25:40.614Z,81.45
2023-04-27T01:26:41.107Z,80.21
2023-04-27T01:27:41.554Z,79.35
2023-04-27T01:28:42.014Z,79.04
2023-04-27T01:29:42.460Z,78.94
2023-04-27T01:30:42.924Z,80.04
2023-04-27T01:31:43.474Z,80.21
2023-04-27T01:32:43.456Z,79.86
2023-04-27T01:33:43.909Z,79.45
2023-04-27T01:34:44.373Z,78.52
2023-04-27T01:35:44.822Z,79.25
2023-04-27T01:36:45.240Z,80.58
2023-04-27T01:37:45.646Z,80.07
2023-04-27T01:38:46.078Z,79.55
2023-04-27T01:39:46.520Z,79.04
2023-04-27T01:40:46.994Z,78.66
2023-04-27T01:41:47.465Z,78.31
2023-04-27T01:42:47.894Z,78.94
2023-04-27T01:43:48.350Z,79.83
2023-04-27T01:44:48.832Z,80.66
2023-04-27T01:45:49.369Z,80.97
2023-04-27T01:46:49.929Z,81.70
2023-04-27T01:47:49.890Z,82.21
2023-04-27T01:48:50.375Z,82.66
2023-04-27T01:49:50.832Z,83.28
2023-04-27T01:50:51.279Z,83.73
2023-04-27T01:51:51.784Z,84.15
2023-04-27T01:52:52.265Z,83.98
2023-04-27T01:53:52.705Z,84.15
2023-04-27T01:54:53.156Z,83.42
2023-04-27T01:55:53.600Z,83.63
2023-04-27T01:56:54.090Z,83.42
2023-04-27T01:57:54.522Z,82.66
2023-04-27T01:58:54.943Z,81.49
2023-04-27T01:59:55.377Z,81.28
2023-04-27T02:00:55.829Z,79.90
2023-04-27T02:01:56.328Z,79.73
2023-04-27T02:02:56.887Z,80.56
2023-04-27T02:03:57.690Z,81.42
2023-04-27T02:04:57.668Z,81.87
2023-04-27T02:05:58.107Z,82.56
2023-04-27T02:06:58.557Z,82.66
2023-04-27T02:07:58.974Z,82.25
2023-04-27T02:08:59.403Z,82.35
2023-04-27T02:09:59.849Z,82.50
2023-04-27T02:11:00.315Z,83.42
2023-04-27T02:12:00.770Z,83.63
2023-04-27T02:13:01.193Z,83.84
2023-04-27T02:14:01.625Z,84.19
2023-04-27T02:15:02.057Z,84.87
2023-04-27T02:16:02.520Z,84.60
2023-04-27T02:17:02.994Z,85.11
2023-04-27T02:18:03.593Z,84.91
2023-04-27T02:19:03.532Z,85.08
2023-04-27T02:20:03.953Z,84.56
2023-04-27T02:21:04.372Z,85.22
2023-04-27T02:22:04.811Z,85.53
2023-04-27T02:23:05.246Z,85.32
2023-04-27T02:24:05.700Z,84.77
2023-04-27T02:25:06.155Z,84.45
2023-04-27T02:26:06.598Z,83.49
2023-04-27T02:27:07.048Z,82.56
2023-04-27T02:28:07.412Z,82.35
2023-04-27T02:29:07.718Z,82.25
2023-04-27T02:30:07.829Z,81.90
2023-04-27T02:31:08.332Z,81.70
2023-04-27T02:32:08.332Z,81.59
2023-04-27T02:33:08.820Z,81.94
2023-04-27T02:34:09.310Z,83.63
2023-04-27T02:35:09.755Z,83.87
2023-04-27T02:36:10.208Z,84.39
2023-04-27T02:37:10.649Z,84.64
2023-04-27T02:38:11.095Z,85.16
2023-04-27T02:39:11.750Z,85.99
2023-04-27T02:40:11.881Z,85.78
2023-04-27T02:41:12.314Z,85.47
2023-04-27T02:42:12.734Z,85.68
2023-04-27T02:43:13.180Z,85.88
2023-04-27T02:44:13.599Z,85.68
2023-04-27T02:45:14.053Z,85.05
2023-04-27T02:46:14.546Z,85.32
2023-04-27T02:47:15.036Z,85.42
2023-04-27T02:48:15.497Z,85.42
2023-04-27T02:49:16.331Z,85.18
2023-04-27T02:50:16.320Z,84.91
2023-04-27T02:51:16.754Z,84.36
2023-04-27T02:52:17.190Z,83.73
2023-04-27T02:53:17.632Z,83.63
2023-04-27T02:54:18.079Z,83.39
2023-04-27T02:55:18.517Z,82.42
2023-04-27T02:56:18.710Z,81.70
2023-04-27T02:57:19.163Z,81.80
2023-04-27T02:58:19.628Z,81.59
2023-04-27T02:59:20.075Z,81.70
2023-04-27T03:00:20.628Z,81.80
2023-04-27T03:01:21.153Z,81.90
2023-04-27T03:02:21.775Z,82.10
2023-04-27T03:03:21.893Z,81.94
2023-04-27T03:04:21.956Z,82.70
2023-04-27T03:05:22.465Z,83.11
2023-04-27T03:06:22.910Z,82.66
2023-04-27T03:07:23.362Z,82.76
2023-04-27T03:08:23.796Z,82.56
2023-04-27T03:09:24.266Z,83.01
2023-04-27T03:10:24.747Z,83.63
2023-04-27T03:11:25.234Z,84.25
2023-04-27T03:12:25.694Z,83.39
2023-04-27T03:13:26.148Z,83.18
2023-04-27T03:14:26.589Z,82.52
2023-04-27T03:15:27.043Z,83.07
2023-04-27T03:16:27.591Z,84.66
2023-04-27T03:17:28.079Z,85.47
2023-04-27T03:18:28.550Z,85.99
2023-04-27T03:19:29.010Z,87.06
2023-04-27T03:20:29.471Z,87.37
2023-04-27T03:21:29.931Z,87.57
2023-04-27T03:22:30.377Z,87.12
2023-04-27T03:23:30.830Z,86.60
2023-04-27T03:24:31.268Z,86.09
2023-04-27T03:25:31.721Z,85.63
2023-04-27T03:26:32.154Z,84.66
2023-04-27T03:27:32.576Z,84.15
2023-04-27T03:28:33.031Z,83.32
2023-04-27T03:29:33.473Z,83.18
2023-04-27T03:30:33.908Z,83.63
2023-04-27T03:31:34.453Z,85.08
2023-04-27T03:32:34.945Z,84.91
2023-04-27T03:33:35.417Z,85.94
2023-04-27T03:34:35.887Z,85.36
2023-04-27T03:35:36.330Z,85.11
2023-04-27T03:36:36.766Z,85.28
2023-04-27T03:37:37.197Z,84.56
2023-04-27T03:38:37.638Z,84.25
2023-04-27T03:39:38.073Z,84.15
2023-04-27T03:40:38.531Z,84.70
2023-04-27T03:41:38.999Z,84.39
2023-04-27T03:42:39.445Z,85.22
2023-04-27T03:43:39.912Z,85.74
2023-04-27T03:44:40.378Z,86.25
2023-04-27T03:45:40.866Z,86.46
2023-04-27T03:46:41.340Z,86.29
2023-04-27T03:47:41.864Z,87.02
2023-04-27T03:48:42.355Z,87.85
2023-04-27T03:49:42.799Z,87.54
2023-04-27T03:50:43.257Z,87.85
2023-04-27T03:51:43.731Z,87.64
2023-04-27T03:52:44.238Z,87.43
2023-04-27T03:53:44.710Z,86.81
2023-04-27T03:54:45.174Z,86.46
2023-04-27T03:55:45.639Z,85.39
2023-04-27T03:56:46.102Z,84.87
2023-04-27T03:57:46.529Z,84.25
2023-04-27T03:58:46.977Z,84.36
2023-04-27T03:59:47.434Z,83.80
2023-04-27T04:00:47.892Z,83.39
2023-04-27T04:01:48.380Z,82.00
2023-04-27T04:02:49.086Z,81.73
2023-04-27T04:03:49.136Z,81.49
2023-04-27T04:04:49.304Z,81.52
2023-04-27T04:05:49.245Z,81.49
2023-04-27T04:06:49.698Z,82.25
2023-04-27T04:07:50.133Z,83.22
2023-04-27T04:08:50.572Z,83.98
2023-04-27T04:09:51.041Z,84.60
2023-04-27T04:10:51.480Z,84.91
2023-04-27T04:11:51.943Z,85.02
2023-04-27T04:12:52.420Z,85.11
2023-04-27T04:13:52.898Z,85.22
2023-04-27T04:14:53.375Z,85.53
2023-04-27T04:15:53.904Z,86.36
2023-04-27T04:16:54.422Z,85.94
2023-04-27T04:17:54.956Z,85.84
2023-04-27T04:18:55.425Z,85.74
2023-04-27T04:19:55.882Z,85.74
2023-04-27T04:20:56.345Z,85.53
2023-04-27T04:21:56.851Z,85.74
2023-04-27T04:22:57.325Z,86.15
2023-04-27T04:23:57.770Z,87.08
2023-04-27T04:24:58.258Z,87.02
2023-04-27T04:25:58.757Z,86.77
2023-04-27T04:26:59.242Z,86.15
2023-04-27T04:27:59.724Z,86.46
2023-04-27T04:29:00.221Z,86.57
2023-04-27T04:30:00.677Z,86.11
2023-04-27T04:31:01.161Z,85.91
2023-04-27T04:32:01.652Z,85.28
2023-04-27T04:33:02.157Z,84.87
2023-04-27T04:34:02.684Z,84.45
2023-04-27T04:35:03.140Z,84.42
2023-04-27T04:36:03.621Z,84.42
2023-04-27T04:37:04.121Z,83.80
2023-04-27T04:38:04.621Z,83.25
2023-04-27T04:39:05.124Z,82.62
2023-04-27T04:40:05.616Z,82.52
2023-04-27T04:41:06.102Z,83.07
2023-04-27T04:42:06.634Z,84.00
2023-04-27T04:43:07.139Z,83.90
2023-04-27T04:44:07.632Z,83.65
2023-04-27T04:45:08.151Z,83.45
2023-04-27T04:46:08.727Z,83.49
2023-04-27T04:47:08.670Z,84.11
2023-04-27T04:48:09.141Z,84.00
2023-04-27T04:49:09.628Z,84.56
2023-04-27T04:50:09.975Z,85.08
2023-04-27T04:51:10.454Z,84.31
2023-04-27T04:52:10.928Z,83.55
2023-04-27T04:53:11.385Z,82.21
2023-04-27T04:54:11.865Z,81.76
2023-04-27T04:55:12.339Z,81.96
2023-04-27T04:56:12.845Z,81.90
2023-04-27T04:57:13.327Z,82.10
2023-04-27T04:58:13.815Z,81.76
2023-04-27T04:59:14.431Z,81.76
2023-04-27T05:00:14.465Z,81.35
2023-04-27T05:01:15.023Z,81.45
2023-04-27T05:02:15.598Z,80.62
2023-04-27T05:03:16.289Z,82.42
2023-04-27T05:04:16.488Z,82.83
2023-04-27T05:05:16.417Z,83.04
2023-04-27T05:06:16.868Z,82.42
2023-04-27T05:07:20.189Z,82.52
2023-04-27T05:08:17.376Z,82.83
2023-04-27T05:09:17.855Z,82.69
2023-04-27T05:10:18.341Z,81.86
2023-04-27T05:11:18.834Z,82.07
2023-04-27T05:12:19.316Z,82.24
2023-04-27T05:13:19.819Z,82.45
2023-04-27T05:14:20.300Z,82.07
2023-04-27T05:15:20.791Z,82.59
2023-04-27T05:16:21.340Z,83.20
2023-04-27T05:17:21.397Z,83.04
2023-04-27T05:18:21.344Z,83.34
2023-04-27T05:19:21.832Z,83.55
2023-04-27T05:20:22.342Z,83.41
2023-04-27T05:21:22.836Z,82.75
2023-04-27T05:22:23.309Z,82.34
2023-04-27T05:23:23.767Z,82.24
2023-04-27T05:24:24.217Z,82.14
2023-04-27T05:25:24.646Z,81.93
2023-04-27T05:26:25.106Z,81.62
2023-04-27T05:27:25.618Z,82.24
2023-04-27T05:28:26.087Z,81.72
2023-04-27T05:29:26.525Z,81.93
2023-04-27T05:30:27.002Z,81.93
2023-04-27T05:31:27.548Z,82.75
2023-04-27T05:32:28.079Z,82.55
2023-04-27T05:33:28.612Z,82.30
2023-04-27T05:34:29.079Z,81.79
2023-04-27T05:35:29.565Z,80.86
2023-04-27T05:36:30.044Z,81.03
2023-04-27T05:37:30.528Z,80.62
2023-04-27T05:38:31.014Z,80.41
2023-04-27T05:39:31.467Z,80.41
2023-04-27T05:40:31.921Z,80.41
2023-04-27T05:41:32.391Z,80.51
2023-04-27T05:42:32.876Z,80.30
2023-04-27T05:43:33.347Z,79.75
2023-04-27T05:44:33.822Z,79.86
2023-04-27T05:45:34.456Z,79.55
2023-04-27T05:46:35.878Z,79.96
2023-04-27T05:47:34.676Z,79.96
2023-04-27T05:48:35.146Z,80.06
2023-04-27T05:49:35.935Z,80.10
2023-04-27T05:50:35.788Z,80.62
2023-04-27T05:51:36.264Z,80.72
2023-04-27T05:52:38.351Z,80.41
2023-04-27T05:53:37.129Z,79.86
2023-04-27T05:54:37.652Z,79.44
2023-04-27T05:55:38.146Z,79.14
2023-04-27T05:56:38.602Z,79.03
2023-04-27T05:57:39.081Z,79.10
2023-04-27T05:58:39.587Z,79.34
2023-04-27T05:59:40.067Z,79.41
2023-04-27T06:00:40.572Z,78.58
2023-04-27T06:01:41.107Z,78.17
2023-04-27T06:02:41.719Z,78.17
2023-04-27T06:03:41.833Z,77.93
2023-04-27T06:04:41.868Z,77.42
2023-04-27T06:05:42.385Z,77.31
2023-04-27T06:06:42.929Z,76.90
2023-04-27T06:07:43.426Z,76.70
2023-04-27T06:08:43.869Z,76.56
2023-04-27T06:09:44.354Z,76.25
2023-04-27T06:10:44.368Z,76.35
2023-04-27T06:11:44.842Z,76.25
2023-04-27T06:12:46.473Z,76.45
2023-04-27T06:13:45.836Z,76.45
2023-04-27T06:14:46.336Z,77.11
2023-04-27T06:15:46.871Z,78.14
2023-04-27T06:16:47.380Z,77.38
2023-04-27T06:17:47.871Z,76.86
2023-04-27T06:18:48.380Z,75.52
2023-04-27T06:19:48.878Z,75.52
2023-04-27T06:20:49.371Z,75.80
2023-04-27T06:21:49.855Z,75.39
2023-04-27T06:22:50.315Z,74.67
2023-04-27T06:23:50.757Z,74.36
2023-04-27T06:24:51.221Z,74.26
2023-04-27T06:25:51.712Z,74.46
2023-04-27T06:26:52.164Z,73.91
2023-04-27T06:27:52.626Z,73.50
2023-04-27T06:28:53.137Z,72.27
2023-04-27T06:29:53.652Z,71.93
2023-04-27T06:30:54.186Z,72.55
2023-04-27T06:31:54.779Z,72.34
2023-04-27T06:32:54.772Z,72.03
2023-04-27T06:33:54.673Z,72.03
2023-04-27T06:34:55.124Z,72.34
2023-04-27T06:35:55.547Z,72.85
2023-04-27T06:36:56.041Z,73.27
2023-04-27T06:37:56.589Z,73.36
2023-04-27T06:38:57.058Z,73.06
2023-04-27T06:39:57.540Z,73.02
2023-04-27T06:40:58.021Z,72.92
2023-04-27T06:41:58.520Z,72.61
2023-04-27T06:42:58.997Z,73.23
2023-04-27T06:43:59.482Z,74.15
2023-04-27T06:45:00.025Z,74.60
2023-04-27T06:46:00.518Z,75.32
2023-04-27T06:47:00.434Z,74.91
2023-04-27T06:48:01.075Z,73.85
2023-04-27T06:49:01.015Z,74.36
2023-04-27T06:50:01.486Z,74.80
2023-04-27T06:51:01.976Z,74.05
2023-04-27T06:52:02.424Z,73.64
2023-04-27T06:53:02.923Z,72.99
2023-04-27T06:54:03.363Z,73.10
2023-04-27T06:55:03.861Z,74.15
2023-04-27T06:56:04.325Z,74.02
2023-04-27T06:57:04.818Z,74.43
2023-04-27T06:58:05.293Z,74.84
2023-04-27T06:59:05.733Z,75.59
2023-04-27T07:00:06.202Z,75.08
2023-04-27T07:01:06.661Z,74.98
2023-04-27T07:02:07.118Z,74.26
2023-04-27T07:03:07.673Z,75.04
2023-04-27T07:04:07.717Z,73.81
2023-04-27T07:05:07.677Z,73.50
2023-04-27T07:06:08.120Z,72.65
2023-04-27T07:07:08.606Z,71.39
2023-04-27T07:08:09.417Z,71.39
2023-04-27T07:09:20.161Z,71.08
2023-04-27T07:10:09.554Z,71.18
2023-04-27T07:11:10.035Z,71.59
2023-04-27T07:12:10.485Z,69.43
2023-04-27T07:13:11.822Z,69.74
2023-04-27T07:14:11.232Z,70.56
2023-04-27T07:15:11.703Z,70.46
2023-04-27T07:16:12.228Z,70.22
2023-04-27T07:17:12.686Z,69.17
2023-04-27T07:18:13.191Z,67.63
2023-04-27T07:19:13.460Z,66.81
2023-04-27T07:20:13.621Z,67.83
2023-04-27T07:21:14.159Z,67.83
2023-04-27T07:22:14.669Z,67.90
2023-04-27T07:23:15.179Z,67.70
2023-04-27T07:24:15.677Z,66.64
2023-04-27T07:25:16.183Z,66.13
2023-04-27T07:26:16.661Z,67.05
2023-04-27T07:27:17.124Z,66.03
2023-04-27T07:28:17.601Z,65.83
2023-04-27T07:29:27.027Z,66.06
2023-04-27T07:30:18.207Z,66.95
2023-04-27T07:31:18.729Z,64.77
2023-04-27T07:32:18.738Z,64.47
2023-04-27T07:33:18.674Z,63.95
2023-04-27T07:34:19.136Z,64.57
2023-04-27T07:35:19.606Z,64.77
2023-04-27T07:36:20.052Z,64.67
2023-04-27T07:37:20.556Z,63.51
2023-04-27T07:38:20.480Z,63.10
2023-04-27T07:39:20.948Z,63.07
2023-04-27T07:40:21.401Z,64.51
2023-04-27T07:41:21.867Z,64.03
2023-04-27T07:42:22.559Z,64.00
2023-04-27T07:43:22.522Z,64.61
2023-04-27T07:44:22.986Z,64.30
2023-04-27T07:45:23.516Z,64.27
2023-04-27T07:46:23.452Z,63.66
2023-04-27T07:47:23.965Z,63.86
2023-04-27T07:48:24.527Z,64.61
2023-04-27T07:49:24.520Z,63.07
2023-04-27T07:50:24.968Z,62.02
2023-04-27T07:51:25.422Z,62.33
2023-04-27T07:52:25.859Z,62.54
2023-04-27T07:53:26.295Z,61.61
2023-04-27T07:54:26.775Z,61.51
2023-04-27T07:55:27.220Z,61.95
2023-04-27T07:56:27.655Z,62.98
2023-04-27T07:57:28.112Z,63.25
2023-04-27T07:58:28.628Z,62.95
2023-04-27T07:59:29.078Z,62.40
2023-04-27T08:00:29.553Z,61.99
2023-04-27T08:01:30.041Z,62.30
2023-04-27T08:02:30.678Z,61.79
2023-04-27T08:03:30.896Z,62.10
2023-04-27T08:04:31.285Z,61.08
2023-04-27T08:05:31.954Z,60.67
2023-04-27T08:06:31.659Z,60.23
2023-04-27T08:07:31.858Z,60.23
2023-04-27T08:08:31.822Z,59.28
2023-04-27T08:09:32.246Z,58.78
2023-04-27T08:10:32.701Z,58.87
2023-04-27T08:11:33.203Z,58.26
2023-04-27T08:12:33.108Z,58.47
2023-04-27T08:13:33.573Z,58.34
2023-04-27T08:14:34.005Z,57.96
2023-04-27T08:15:34.462Z,58.54
2023-04-27T08:16:34.942Z,58.23
2023-04-27T08:17:35.445Z,58.82
2023-04-27T08:18:35.883Z,58.31
2023-04-27T08:19:36.318Z,57.62
2023-04-27T08:20:36.757Z,57.62
2023-04-27T08:21:37.196Z,57.42
2023-04-27T08:22:37.616Z,58.51
2023-04-27T08:23:38.093Z,57.50
2023-04-27T08:24:38.580Z,57.09
2023-04-27T08:25:39.025Z,57.50
2023-04-27T08:26:39.489Z,58.11
2023-04-27T08:27:39.980Z,56.65
2023-04-27T08:28:39.882Z,56.55
2023-04-27T08:29:40.346Z,56.63
2023-04-27T08:30:40.785Z,54.69
2023-04-27T08:31:41.265Z,53.98
2023-04-27T08:32:41.225Z,55.00
2023-04-27T08:33:41.111Z,55.79
2023-04-27T08:34:41.550Z,55.58
2023-04-27T08:35:41.989Z,54.66
2023-04-27T08:36:42.421Z,53.88
2023-04-27T08:37:42.871Z,54.28
2023-04-27T08:38:43.321Z,54.21
2023-04-27T08:39:43.774Z,54.79
2023-04-27T08:40:44.227Z,53.06
2023-04-27T08:41:44.718Z,52.48
2023-04-27T08:42:45.164Z,53.50
2023-04-27T08:43:45.629Z,54.69
2023-04-27T08:44:46.099Z,54.69
2023-04-27T08:45:46.563Z,53.67
2023-04-27T08:46:47.104Z,53.88
2023-04-27T08:47:47.055Z,53.96
2023-04-27T08:48:47.502Z,52.73
2023-04-27T08:49:47.954Z,50.98
2023-04-27T08:50:48.403Z,51.51
2023-04-27T08:51:48.889Z,51.81
2023-04-27T08:52:49.349Z,52.81
2023-04-27T08:53:49.785Z,53.29
2023-04-27T08:54:50.265Z,53.19
2023-04-27T08:55:50.741Z,53.47
2023-04-27T08:56:51.184Z,52.45
2023-04-27T08:57:51.636Z,52.25
2023-04-27T08:58:52.130Z,51.95
2023-04-27T08:59:52.609Z,51.77
2023-04-27T09:00:53.069Z,51.75
2023-04-27T09:01:53.554Z,50.52
2023-04-27T09:02:53.681Z,50.14
2023-04-27T09:03:53.778Z,51.34
2023-04-27T09:04:53.933Z,50.93
2023-04-27T09:06:04.334Z,49.71
2023-04-27T09:06:54.070Z,51.03
2023-04-27T09:07:54.567Z,49.89
2023-04-27T09:08:55.050Z,48.47
2023-04-27T09:09:55.501Z,49.18
2023-04-27T09:10:55.989Z,49.79
2023-04-27T09:11:56.442Z,49.69
2023-04-27T09:12:56.895Z,50.09
2023-04-27T09:13:57.375Z,50.29
2023-04-27T09:14:57.847Z,50.29
2023-04-27T09:15:58.481Z,49.58
2023-04-27T09:16:58.342Z,50.78
2023-04-27T09:17:58.831Z,48.95
2023-04-27T09:18:58.787Z,47.55
2023-04-27T09:19:59.204Z,47.75
2023-04-27T09:20:59.621Z,47.25
2023-04-27T09:22:00.063Z,48.27
2023-04-27T09:23:00.484Z,48.44
2023-04-27T09:24:00.932Z,47.83
2023-04-27T09:25:01.378Z,49.16
2023-04-27T09:26:01.849Z,48.22
2023-04-27T09:27:02.304Z,46.29
2023-04-27T09:28:02.735Z,46.59
2023-04-27T09:29:03.182Z,47.81
2023-04-27T09:30:03.622Z,48.02
2023-04-27T09:31:04.052Z,48.83
2023-04-27T09:32:04.519Z,49.92
2023-04-27T09:33:04.424Z,47.97
2023-04-27T09:34:04.878Z,47.03
2023-04-27T09:35:05.304Z,45.92
2023-04-27T09:36:05.721Z,48.25
2023-04-27T09:37:06.148Z,47.75
2023-04-27T09:38:06.556Z,46.43
2023-04-27T09:39:07.007Z,45.42
2023-04-27T09:40:07.424Z,45.92
2023-04-27T09:41:07.832Z,44.58
2023-04-27T09:42:08.250Z,45.90
2023-04-27T09:43:08.658Z,45.09
2023-04-27T09:44:09.046Z,45.21
2023-04-27T09:45:09.449Z,45.21
2023-04-27T09:46:09.895Z,44.70
2023-04-27T09:47:09.796Z,45.21
2023-04-27T09:48:10.236Z,44.38
2023-04-27T09:49:10.642Z,44.81
2023-04-27T09:50:11.124Z,44.90
2023-04-27T09:51:10.857Z,45.84
2023-04-27T09:52:11.249Z,48.23
2023-04-27T09:53:11.673Z,47.80
2023-04-27T09:54:12.103Z,46.59
2023-04-27T09:55:12.543Z,45.37
2023-04-27T09:56:12.953Z,45.19
2023-04-27T09:57:13.422Z,45.94
2023-04-27T09:58:13.856Z,48.71
2023-04-27T09:59:14.488Z,46.27
2023-04-27T10:00:14.554Z,46.88
2023-04-27T10:01:14.991Z,46.88
2023-04-27T10:02:24.041Z,46.70
2023-04-27T10:03:15.623Z,46.80
2023-04-27T10:04:15.652Z,45.37
2023-04-27T10:05:15.581Z,47.71
2023-04-27T10:06:15.448Z,46.37
2023-04-27T10:07:15.887Z,43.73
2023-04-27T10:08:16.299Z,43.61
2023-04-27T10:09:16.713Z,43.59
2023-04-27T10:10:17.136Z,44.78
2023-04-27T10:11:17.556Z,42.98
2023-04-27T10:12:17.991Z,41.99
2023-04-27T10:13:18.393Z,43.51
2023-04-27T10:14:18.806Z,43.84
2023-04-27T10:15:19.190Z,42.61
2023-04-27T10:16:19.635Z,44.34
2023-04-27T10:17:20.051Z,43.59
2023-04-27T10:18:20.470Z,44.68
2023-04-27T10:19:20.879Z,42.55
2023-04-27T10:20:21.268Z,42.25
2023-04-27T10:21:21.673Z,43.44
2023-04-27T10:22:22.106Z,42.94
2023-04-27T10:23:22.441Z,42.23
2023-04-27T10:24:22.868Z,41.52
2023-04-27T10:25:23.274Z,40.63
2023-04-27T10:26:23.697Z,40.22
2023-04-27T10:27:24.105Z,41.44
2023-04-27T10:28:24.658Z,40.91
2023-04-27T10:29:24.410Z,42.72
2023-04-27T10:30:24.826Z,40.77
2023-04-27T10:31:25.379Z,40.39
2023-04-27T10:32:25.276Z,41.89
2023-04-27T10:33:25.692Z,41.77
2023-04-27T10:34:26.127Z,42.68
2023-04-27T10:35:26.569Z,42.33
2023-04-27T10:36:26.980Z,41.12
2023-04-27T10:37:27.395Z,41.61
2023-04-27T10:38:27.798Z,40.68
2023-04-27T10:39:40.070Z,37.46
2023-04-27T10:40:28.306Z,39.18
2023-04-27T10:41:28.721Z,40.09
2023-04-27T10:42:29.229Z,42.49
2023-04-27T10:43:29.158Z,40.05
2023-04-27T10:44:29.589Z,40.05
2023-04-27T10:45:31.821Z,39.77
2023-04-27T10:46:29.967Z,38.88
2023-04-27T10:47:30.385Z,39.79
2023-04-27T10:48:30.816Z,39.39
2023-04-27T10:49:31.211Z,41.79
2023-04-27T10:50:31.605Z,39.57
2023-04-27T10:51:31.994Z,40.17
2023-04-27T10:52:32.388Z,40.36
2023-04-27T10:53:32.779Z,39.99
2023-04-27T10:54:33.172Z,39.18
2023-04-27T10:55:33.581Z,40.30
2023-04-27T10:56:33.990Z,39.81
2023-04-27T10:57:34.373Z,40.82
2023-04-27T10:58:48.345Z,40.44
2023-04-27T10:59:34.830Z,41.35
2023-04-27T11:00:35.306Z,42.25
2023-04-27T11:01:35.093Z,42.11
2023-04-27T11:02:35.634Z,39.20
2023-04-27T11:03:35.631Z,39.93
2023-04-27T11:04:35.674Z,41.14
2023-04-27T11:05:35.551Z,43.14
2023-04-27T11:06:35.948Z,40.23
2023-04-27T11:07:36.356Z,39.52
2023-04-27T11:08:36.811Z,38.92
2023-04-27T11:09:36.687Z,40.55
2023-04-27T11:10:37.101Z,38.95
2023-04-27T11:11:37.529Z,40.15
2023-04-27T11:12:37.936Z,40.23
2023-04-27T11:13:38.384Z,39.81
2023-04-27T11:14:38.755Z,40.48
2023-04-27T11:15:39.144Z,38.07
2023-04-27T11:16:39.623Z,40.28
2023-04-27T11:17:39.519Z,39.26
2023-04-27T11:18:39.908Z,42.03
2023-04-27T11:19:40.265Z,37.80
2023-04-27T11:20:40.619Z,38.42
2023-04-27T11:21:40.979Z,38.32
2023-04-27T11:22:41.348Z,39.15
2023-04-27T11:23:41.701Z,39.41
2023-04-27T11:24:42.064Z,38.39
2023-04-27T11:25:41.983Z,37.56
2023-04-27T11:26:42.342Z,37.74
2023-04-27T11:27:42.719Z,37.46
2023-04-27T11:28:43.087Z,38.69
2023-04-27T11:29:43.455Z,38.28
2023-04-27T11:30:43.863Z,39.09
2023-04-27T11:31:44.272Z,37.18
2023-04-27T11:32:44.733Z,37.70
2023-04-27T11:33:44.551Z,38.73
2023-04-27T11:34:44.910Z,37.11
2023-04-27T11:35:45.247Z,41.02
2023-04-27T11:36:45.612Z,40.28
2023-04-27T11:37:45.972Z,38.03
2023-04-27T11:38:46.366Z,36.80
2023-04-27T11:39:46.384Z,35.98
2023-04-27T11:40:46.345Z,35.97
2023-04-27T11:41:46.675Z,35.36
2023-04-27T11:42:47.010Z,35.85
2023-04-27T11:43:47.352Z,37.07
2023-04-27T11:44:47.696Z,39.28
2023-04-27T11:45:47.992Z,36.75
2023-04-27T11:46:48.308Z,35.44
2023-04-27T11:47:48.626Z,35.55
2023-04-27T11:48:48.919Z,35.35
2023-04-27T11:49:49.207Z,36.35
2023-04-27T11:50:48.965Z,36.55
2023-04-27T11:51:49.227Z,35.85
2023-04-27T11:52:49.498Z,35.57
2023-04-27T11:53:49.743Z,36.49
2023-04-27T11:54:50.002Z,35.85
2023-04-27T11:55:50.229Z,38.39
2023-04-27T11:56:50.491Z,38.18
2023-04-27T11:57:50.731Z,38.99
2023-04-27T11:58:50.964Z,37.96
2023-04-27T11:59:50.666Z,37.74
2023-04-27T12:00:50.883Z,40.14
2023-04-27T12:01:51.125Z,38.28
2023-04-27T12:02:51.498Z,35.85
2023-04-27T12:03:51.467Z,33.95
2023-04-27T12:04:51.698Z,35.38
2023-04-27T12:05:51.595Z,35.36
2023-04-27T12:06:51.256Z,35.73
2023-04-27T12:07:51.480Z,36.93
2023-04-27T12:08:51.670Z,35.44
2023-04-27T12:09:51.897Z,36.35
2023-04-27T12:10:52.104Z,35.31
2023-04-27T12:11:52.309Z,35.11
2023-04-27T12:12:52.505Z,34.36
2023-04-27T12:13:52.721Z,36.52
2023-04-27T12:14:52.942Z,36.62
2023-04-27T12:15:53.138Z,34.81
2023-04-27T12:16:53.464Z,36.76
2023-04-27T12:17:53.236Z,37.34
2023-04-27T12:18:52.894Z,37.43
2023-04-27T12:19:53.127Z,35.80
2023-04-27T12:20:53.327Z,34.72
2023-04-27T12:21:53.528Z,36.86
2023-04-27T12:22:53.714Z,36.15
2023-04-27T12:23:53.918Z,35.91
2023-04-27T12:24:54.111Z,35.98
2023-04-27T12:25:54.287Z,34.17
2023-04-27T12:26:54.484Z,33.87
2023-04-27T12:27:54.690Z,35.18
2023-04-27T12:28:54.878Z,35.18
2023-04-27T12:29:55.065Z,34.06
2023-04-27T12:30:55.353Z,34.67
2023-04-27T12:31:55.007Z,37.41
2023-04-27T12:32:55.261Z,36.10
2023-04-27T12:33:54.893Z,36.00
2023-04-27T12:34:55.113Z,35.43
2023-04-27T12:35:55.290Z,36.15
2023-04-27T12:36:55.463Z,36.25
2023-04-27T12:37:55.627Z,36.33
2023-04-27T12:38:55.771Z,36.13
2023-04-27T12:39:55.973Z,36.02
2023-04-27T12:40:56.185Z,34.71
2023-04-27T12:41:56.424Z,36.22
2023-04-27T12:42:56.027Z,37.21
2023-04-27T12:43:56.200Z,37.08
2023-04-27T12:44:56.375Z,37.35
2023-04-27T12:45:56.617Z,34.88
2023-04-27T12:46:56.256Z,36.99
2023-04-27T12:48:03.338Z,34.91
2023-04-27T12:48:56.315Z,37.34
2023-04-27T12:49:55.920Z,35.23
2023-04-27T12:50:56.078Z,35.43
2023-04-27T12:51:56.276Z,36.92
2023-04-27T12:52:56.087Z,37.63
2023-04-27T12:53:56.646Z,35.93
2023-04-27T12:54:56.432Z,36.54
2023-04-27T12:55:56.630Z,36.24
2023-04-27T12:56:56.813Z,37.24